This demonstration page uses our WeatherBlox Daily Observations layout. Learn more.

Left ArrowRight Arrow

36.17497, -115.13722

Hourly Observations for March 25, 2016

Temp ( °F °C ) Dew Point ( °F °C ) Humidity (%) Winds ( mph kmh ) Pressure ( in mb ) Visibility ( mi km ) Precip ( " mm )
12:53 am 00:53 Clear 60 15.6 17 -8.3 19 19 NW 13 20 29.92 1013 10 16.0934 0 0
1:53 am 01:53 Clear 63 17.2 15 -9.4 15 15 NNW 13 20 29.92 1013 10 16.0934 0 0
2:53 am 02:53 Clear 64 17.8 15 -9.4 15 15 NNW 13 20 29.91 1013 10 16.0934 0 0
3:53 am 03:53 Clear 63 17.2 15 -9.4 15 15 NNW 14 22 29.9 1012 10 16.0934 0 0
4:53 am 04:53 Clear 63 17.2 16 -8.9 16 16 NNW 15 24 29.9 1012 10 16.0934 0 0
5:53 am 05:53 Clear 62 16.7 16 -8.9 17 17 NNW 21 33 29.9 1013 10 16.0934 0 0
6:53 am 06:53 Sunny 60 15.6 16 -8.9 18 18 N 12 19 29.92 1013 10 16.0934 0 0
7:53 am 07:53 Sunny 61 16.1 17 -8.3 18 18 NNW 5 7 29.96 1015 10 16.0934 0 0
8:53 am 08:53 Sunny 64 17.8 19 -7.2 18 18 SW 5 7 29.95 1014 10 16.0934 0 0
9:53 am 09:53 Sunny 69 20.6 19 -7.2 15 15 ENE 8 13 29.94 1014 10 16.0934 0 0
10:53 am 10:53 Sunny 70 21.1 18 -7.8 14 14 VRB 6 9 29.92 1013 10 16.0934 0 0
11:53 am 11:53 Sunny 75 23.9 16 -8.9 10 10 N 12 19 29.9 1013 10 16.0934 0 0
12:53 pm 12:53 Sunny 76 24.4 13 -10.6 9 9 N 8 13 29.86 1011 10 16.0934 0 0
1:53 pm 13:53 Sunny 78 25.6 13 -10.6 8 8 NNW 17 28 29.82 1010 10 16.0934 0 0
2:53 pm 14:53 Sunny 77 25 13 -10.6 9 9 VRB 5 7 29.78 1009 10 16.0934 0 0
3:53 pm 15:53 Sunny 79 26.1 14 -10 8 8 undefined N/A 29.75 1007 10 16.0934 0 0
4:53 pm 16:53 Sunny 80 26.7 11 -11.7 7 7 Calm 29.72 1006 10 16.0934 0 0
5:53 pm 17:53 Sunny 79 26.1 12 -11.1 8 8 NNW 17 28 29.7 1006 10 16.0934 0 0
6:53 pm 18:53 Sunny 77 25 13 -10.6 9 9 Calm 29.71 1006 10 16.0934 0 0
7:53 pm 19:53 Clear 74 23.3 15 -9.4 10 10 W 8 13 29.71 1006 10 16.0934 0 0
8:53 pm 20:53 Clear 72 22.2 17 -8.3 12 12 W 8 13 29.72 1007 10 16.0934 0 0
9:53 pm 21:53 Clear 70 21.1 16 -8.9 12 12 NNW 12 19 29.73 1007 10 16.0934 0 0
10:53 pm 22:53 Clear 70 21.1 11 -11.7 10 10 NNW 15 24 29.73 1007 10 16.0934 0 0
11:53 pm 23:53 Clear 69 20.6 12 -11.1 11 11 WNW 16 26 29.75 1007 10 16.0934 0 0

Powered by AerisWeather